Time;durP1;ratioP1;P1;durP2;ratioP2;P2;SDS_P1;SDS_P2;PMS_P1;PMS_P2;Temp;Humidity;BMP_temperature;BMP_pressure;BME280_temperature;BME280_humidity;BME280_pressure;Samples;Min_cycle;Max_cycle;Signal;HPM_P1;HPM_P2
2023/08/20 00:00:27;;;;;;;9.90;4.03;;;;;;;;;;5072188;28;20072;-66
2023/08/20 00:02:58;;;;;;;8.52;5.00;;;;;;;;;;5071644;28;20506;-66
2023/08/20 00:05:24;;;;;;;9.45;4.43;;;;;;;;;;5070985;28;20394;-66
2023/08/20 00:07:50;;;;;;;10.45;4.97;;;;;;;;;;5072118;28;20040;-66
2023/08/20 00:10:17;;;;;;;11.68;4.60;;;;;;;;;;5071394;28;20047;-66
2023/08/20 00:12:43;;;;;;;13.15;5.10;;;;;;;;;;5072063;28;20449;-66
2023/08/20 00:15:09;;;;;;;8.75;4.82;;;;;;;;;;5071730;28;20128;-66
2023/08/20 00:17:37;;;;;;;8.90;5.15;;;;;;;;;;5071463;28;20119;-66
2023/08/20 00:20:09;;;;;;;13.02;4.82;;;;;;;;;;5070431;28;20354;-66
2023/08/20 00:22:35;;;;;;;10.27;4.63;;;;;;;;;;5071909;28;20044;-66
2023/08/20 00:25:03;;;;;;;14.10;5.25;;;;;;;;;;5072776;28;20124;-66
2023/08/20 00:27:29;;;;;;;9.35;4.78;;;;;;;;;;5092089;28;20051;-66
2023/08/20 00:29:55;;;;;;;11.32;4.95;;;;;;;;;;5091761;28;20052;-66
2023/08/20 00:32:21;;;;;;;7.78;4.10;;;;;;;;;;5091456;28;20040;-66
2023/08/20 00:34:47;;;;;;;10.10;4.68;;;;;;;;;;5091775;28;20459;-66
2023/08/20 00:37:13;;;;;;;10.65;5.05;;;;;;;;;;5091679;28;20074;-66
2023/08/20 00:39:39;;;;;;;12.18;6.03;;;;;;;;;;5091278;28;20669;-66
2023/08/20 00:42:05;;;;;;;9.73;5.47;;;;;;;;;;5091637;28;20036;-66
2023/08/20 00:44:31;;;;;;;10.20;5.13;;;;;;;;;;5091492;28;20068;-66
2023/08/20 00:47:00;;;;;;;7.93;4.80;;;;;;;;;;5089698;28;20040;-66
2023/08/20 00:49:26;;;;;;;10.35;5.18;;;;;;;;;;5082286;28;20159;-66
2023/08/20 00:51:52;;;;;;;11.95;4.97;;;;;;;;;;5070913;28;20123;-66
2023/08/20 00:54:18;;;;;;;11.73;5.45;;;;;;;;;;5070373;28;20127;-66
2023/08/20 00:56:44;;;;;;;7.43;4.72;;;;;;;;;;5071032;28;20545;-66
2023/08/20 00:59:11;;;;;;;10.80;5.18;;;;;;;;;;5071084;28;20063;-66
2023/08/20 01:01:37;;;;;;;9.50;5.13;;;;;;;;;;5070572;28;20094;-66
2023/08/20 01:04:03;;;;;;;9.73;5.30;;;;;;;;;;5071120;28;20123;-66
2023/08/20 01:06:41;;;;;;;10.93;4.88;;;;;;;;;;5070826;28;20554;-66
2023/08/20 01:09:18;;;;;;;8.40;5.50;;;;;;;;;;5070493;28;20518;-66
2023/08/20 01:11:50;;;;;;;10.75;5.63;;;;;;;;;;5070638;28;20048;-66
2023/08/20 01:14:17;;;;;;;10.85;6.70;;;;;;;;;;5070918;28;20117;-66
2023/08/20 01:16:43;;;;;;;9.60;5.80;;;;;;;;;;5070324;28;20052;-66
2023/08/20 01:19:12;;;;;;;9.00;5.18;;;;;;;;;;5071087;28;20127;-66
2023/08/20 01:21:39;;;;;;;7.65;4.85;;;;;;;;;;5070615;28;20083;-66
2023/08/20 01:24:11;;;;;;;9.50;4.82;;;;;;;;;;5070398;28;20036;-66
2023/08/20 01:26:46;;;;;;;8.10;4.80;;;;;;;;;;5085455;28;20119;-66
2023/08/20 01:29:13;;;;;;;7.68;4.70;;;;;;;;;;5090587;28;20222;-66
2023/08/20 01:31:39;;;;;;;7.68;5.35;;;;;;;;;;5090531;28;20410;-66
2023/08/20 01:34:05;;;;;;;8.95;5.72;;;;;;;;;;5090788;28;20406;-66
2023/08/20 01:36:31;;;;;;;9.00;5.20;;;;;;;;;;5090660;28;20040;-66
2023/08/20 01:38:57;;;;;;;9.65;5.50;;;;;;;;;;5090285;28;20040;-66
2023/08/20 01:41:23;;;;;;;8.93;5.43;;;;;;;;;;5090439;28;20093;-66
2023/08/20 01:43:49;;;;;;;9.07;5.40;;;;;;;;;;5090684;28;20046;-66
2023/08/20 01:46:15;;;;;;;8.02;5.10;;;;;;;;;;5090296;28;20539;-66
2023/08/20 01:48:41;;;;;;;7.32;5.20;;;;;;;;;;5087764;28;20072;-66
2023/08/20 01:51:07;;;;;;;9.60;4.90;;;;;;;;;;5070452;28;20075;-66
2023/08/20 01:53:33;;;;;;;7.47;5.70;;;;;;;;;;5069395;28;20040;-66
2023/08/20 01:55:59;;;;;;;9.77;5.90;;;;;;;;;;5070397;28;20115;-66
2023/08/20 01:58:25;;;;;;;7.05;5.20;;;;;;;;;;5070201;28;20110;-66
2023/08/20 02:00:52;;;;;;;6.13;4.90;;;;;;;;;;5069675;28;20087;-66
2023/08/20 02:03:18;;;;;;;11.30;5.03;;;;;;;;;;5070260;28;20525;-66
2023/08/20 02:05:43;;;;;;;7.32;5.38;;;;;;;;;;5070284;28;20048;-66
2023/08/20 02:08:09;;;;;;;10.77;5.95;;;;;;;;;;5069735;28;20491;-66
2023/08/20 02:10:36;;;;;;;7.10;4.85;;;;;;;;;;5070137;28;20453;-66
2023/08/20 02:13:03;;;;;;;9.50;6.15;;;;;;;;;;5070136;28;20101;-66
2023/08/20 02:15:30;;;;;;;9.25;5.63;;;;;;;;;;5069693;28;20049;-66
2023/08/20 02:17:57;;;;;;;8.23;5.25;;;;;;;;;;5070183;28;20129;-66
2023/08/20 02:20:23;;;;;;;7.32;5.40;;;;;;;;;;5069925;28;20044;-66
2023/08/20 02:22:49;;;;;;;14.68;6.97;;;;;;;;;;5069815;28;20378;-66
2023/08/20 02:25:15;;;;;;;8.07;5.68;;;;;;;;;;5073420;28;20051;-66
2023/08/20 02:27:41;;;;;;;9.70;6.82;;;;;;;;;;5090133;28;20230;-66
2023/08/20 02:30:07;;;;;;;12.00;6.47;;;;;;;;;;5089797;28;20101;-66
2023/08/20 02:32:33;;;;;;;8.35;6.97;;;;;;;;;;5090252;28;20044;-66
2023/08/20 02:34:59;;;;;;;7.65;6.85;;;;;;;;;;5090356;28;20561;-66
2023/08/20 02:37:25;;;;;;;10.85;6.65;;;;;;;;;;5089767;28;20111;-67
2023/08/20 02:39:51;;;;;;;10.60;6.78;;;;;;;;;;5090103;28;20043;-67
2023/08/20 02:42:17;;;;;;;11.43;6.47;;;;;;;;;;5090295;28;20530;-67
2023/08/20 02:44:43;;;;;;;10.40;6.22;;;;;;;;;;5089809;28;20398;-67
2023/08/20 02:47:09;;;;;;;9.82;6.43;;;;;;;;;;5089895;28;20040;-66
2023/08/20 02:49:35;;;;;;;9.07;6.32;;;;;;;;;;5079710;28;20089;-66
2023/08/20 02:52:01;;;;;;;12.88;6.82;;;;;;;;;;5069504;28;20116;-66
2023/08/20 02:54:28;;;;;;;10.48;6.18;;;;;;;;;;5068659;28;20036;-66
2023/08/20 02:56:54;;;;;;;7.55;5.97;;;;;;;;;;5069832;28;20036;-66
2023/08/20 02:59:20;;;;;;;7.80;5.13;;;;;;;;;;5069683;28;20467;-66
2023/08/20 03:01:46;;;;;;;8.30;5.05;;;;;;;;;;5069640;28;20063;-66
2023/08/20 03:04:12;;;;;;;10.30;6.07;;;;;;;;;;5068675;28;20044;-66
2023/08/20 03:06:38;;;;;;;12.60;6.80;;;;;;;;;;5071866;28;20040;-66
2023/08/20 03:09:04;;;;;;;10.63;6.65;;;;;;;;;;5073314;28;20040;-66
2023/08/20 03:11:30;;;;;;;12.70;7.28;;;;;;;;;;5073089;28;20082;-66
2023/08/20 03:13:56;;;;;;;9.77;6.63;;;;;;;;;;5072797;28;20036;-66
2023/08/20 03:16:22;;;;;;;9.85;6.35;;;;;;;;;;5073483;28;20498;-66
2023/08/20 03:18:48;;;;;;;8.70;6.55;;;;;;;;;;5072660;28;20123;-66
2023/08/20 03:21:14;;;;;;;11.00;7.18;;;;;;;;;;5072569;28;20182;-66
2023/08/20 03:23:40;;;;;;;10.55;6.20;;;;;;;;;;5072985;28;20044;-66
2023/08/20 03:26:06;;;;;;;9.85;6.28;;;;;;;;;;5083295;28;20042;-66
2023/08/20 03:28:32;;;;;;;9.38;6.50;;;;;;;;;;5092376;28;20521;-67
2023/08/20 03:31:01;;;;;;;11.23;5.90;;;;;;;;;;5092988;28;20121;-67
2023/08/20 03:33:28;;;;;;;12.20;6.00;;;;;;;;;;5091453;28;20072;-66
2023/08/20 03:35:54;;;;;;;11.48;5.90;;;;;;;;;;5092671;28;20136;-66
2023/08/20 03:38:20;;;;;;;8.40;5.78;;;;;;;;;;5093126;28;20036;-66
2023/08/20 03:40:46;;;;;;;9.07;6.28;;;;;;;;;;5092642;28;20593;-66
2023/08/20 03:43:12;;;;;;;10.02;5.63;;;;;;;;;;5092718;28;20088;-66
2023/08/20 03:45:38;;;;;;;6.93;5.72;;;;;;;;;;5092727;28;20099;-66
2023/08/20 03:48:04;;;;;;;7.70;5.97;;;;;;;;;;5092760;28;20481;-66
2023/08/20 03:50:30;;;;;;;7.78;5.90;;;;;;;;;;5074637;28;20040;-66
2023/08/20 03:52:56;;;;;;;14.57;6.70;;;;;;;;;;5071723;28;20041;-66
2023/08/20 03:55:22;;;;;;;8.90;5.90;;;;;;;;;;5072607;28;20037;-66
2023/08/20 03:57:48;;;;;;;9.88;6.70;;;;;;;;;;5072292;28;20042;-66
2023/08/20 04:00:14;;;;;;;8.32;6.20;;;;;;;;;;5070237;28;20080;-66
2023/08/20 04:02:40;;;;;;;10.35;6.47;;;;;;;;;;5071950;28;20048;-66
2023/08/20 04:05:06;;;;;;;11.73;6.22;;;;;;;;;;5072248;28;20085;-66
2023/08/20 04:07:32;;;;;;;9.00;5.88;;;;;;;;;;5071852;28;20475;-66
2023/08/20 04:09:58;;;;;;;9.60;6.05;;;;;;;;;;5072306;28;20043;-66
2023/08/20 04:12:24;;;;;;;11.52;6.25;;;;;;;;;;5072192;28;20055;-66
2023/08/20 04:14:50;;;;;;;11.50;6.25;;;;;;;;;;5071700;28;20098;-66
2023/08/20 04:17:16;;;;;;;7.95;6.57;;;;;;;;;;5071182;28;20051;-66
2023/08/20 04:19:42;;;;;;;12.13;6.68;;;;;;;;;;5071486;28;20036;-66
2023/08/20 04:22:08;;;;;;;10.85;6.55;;;;;;;;;;5071355;28;20044;-66
2023/08/20 04:24:34;;;;;;;9.20;6.85;;;;;;;;;;5071814;28;20498;-66
2023/08/20 04:27:00;;;;;;;12.45;6.78;;;;;;;;;;5089669;28;20482;-66
2023/08/20 04:29:27;;;;;;;7.93;6.53;;;;;;;;;;5091186;28;20044;-66
2023/08/20 04:31:53;;;;;;;9.65;6.55;;;;;;;;;;5090218;28;20036;-66
2023/08/20 04:34:19;;;;;;;11.88;7.28;;;;;;;;;;5091571;28;20040;-66
2023/08/20 04:36:45;;;;;;;10.02;7.72;;;;;;;;;;5073139;28;20079;-66
2023/08/20 04:39:11;;;;;;;9.80;6.82;;;;;;;;;;5091607;28;20040;-66
2023/08/20 04:41:37;;;;;;;7.93;7.13;;;;;;;;;;5091484;28;20048;-66
2023/08/20 04:44:03;;;;;;;8.55;6.85;;;;;;;;;;5091381;28;20602;-66
2023/08/20 04:46:29;;;;;;;8.82;6.97;;;;;;;;;;5090134;28;20039;-66
2023/08/20 04:48:55;;;;;;;7.22;6.53;;;;;;;;;;5086627;28;20040;-66
2023/08/20 04:51:21;;;;;;;12.32;7.25;;;;;;;;;;5070577;28;20087;-66
2023/08/20 04:53:47;;;;;;;12.88;8.82;;;;;;;;;;5071155;28;20131;-66
2023/08/20 04:56:13;;;;;;;12.55;8.60;;;;;;;;;;5071266;28;20098;-66
2023/08/20 04:58:39;;;;;;;12.07;8.65;;;;;;;;;;5070612;28;20036;-66
2023/08/20 05:01:05;;;;;;;11.90;8.05;;;;;;;;;;5070940;28;20128;-66
2023/08/20 05:03:31;;;;;;;12.60;8.70;;;;;;;;;;5070908;28;20037;-66
2023/08/20 05:05:57;;;;;;;10.05;8.55;;;;;;;;;;5070633;28;20033;-66
2023/08/20 05:08:23;;;;;;;14.57;9.52;;;;;;;;;;5071092;28;20125;-66
2023/08/20 05:10:50;;;;;;;12.75;9.50;;;;;;;;;;5069360;28;20040;-66
2023/08/20 05:13:16;;;;;;;14.15;9.20;;;;;;;;;;5070624;28;20048;-66
2023/08/20 05:15:42;;;;;;;14.88;9.00;;;;;;;;;;5070802;28;20103;-66
2023/08/20 05:18:08;;;;;;;15.70;9.82;;;;;;;;;;5071014;28;20097;-66
2023/08/20 05:20:34;;;;;;;14.85;9.82;;;;;;;;;;5070367;28;20120;-66
2023/08/20 05:23:00;;;;;;;15.13;8.90;;;;;;;;;;5070730;28;20526;-66
2023/08/20 05:25:26;;;;;;;15.90;9.85;;;;;;;;;;5075597;28;20036;-66
2023/08/20 05:27:52;;;;;;;12.82;8.95;;;;;;;;;;5089586;28;20063;-66
2023/08/20 05:30:18;;;;;;;13.18;9.50;;;;;;;;;;5089183;28;20048;-66
2023/08/20 05:32:44;;;;;;;13.88;9.45;;;;;;;;;;5090851;28;20044;-66
2023/08/20 05:35:10;;;;;;;13.00;8.40;;;;;;;;;;5090378;28;20500;-66
2023/08/20 05:37:36;;;;;;;10.32;7.75;;;;;;;;;;5090405;28;20123;-66
2023/08/20 05:40:02;;;;;;;11.48;7.72;;;;;;;;;;5090572;28;20040;-66
2023/08/20 05:42:28;;;;;;;14.90;10.00;;;;;;;;;;5090363;28;20035;-66
2023/08/20 05:44:54;;;;;;;13.15;10.02;;;;;;;;;;5090706;28;20516;-66
2023/08/20 05:47:20;;;;;;;16.73;10.48;;;;;;;;;;5090573;28;20044;-66
2023/08/20 05:49:46;;;;;;;22.30;12.50;;;;;;;;;;5076925;28;20044;-66
2023/08/20 05:52:12;;;;;;;17.48;12.82;;;;;;;;;;5070427;28;20036;-66
2023/08/20 05:54:38;;;;;;;19.95;13.88;;;;;;;;;;5070336;28;20040;-66
2023/08/20 05:57:04;;;;;;;16.83;11.88;;;;;;;;;;5070152;28;20047;-66
2023/08/20 05:59:30;;;;;;;18.88;12.60;;;;;;;;;;5070323;28;20486;-66
2023/08/20 06:01:56;;;;;;;18.67;12.00;;;;;;;;;;5070135;28;20044;-66
2023/08/20 06:04:22;;;;;;;17.75;12.65;;;;;;;;;;5069974;28;20044;-66
2023/08/20 06:06:48;;;;;;;14.35;10.05;;;;;;;;;;5070011;28;20049;-66
2023/08/20 06:09:14;;;;;;;19.42;11.25;;;;;;;;;;5070253;28;20115;-66
2023/08/20 06:11:40;;;;;;;19.50;12.82;;;;;;;;;;5068275;28;20453;-66
2023/08/20 06:14:06;;;;;;;20.73;12.30;;;;;;;;;;5070274;28;20032;-66
2023/08/20 06:16:32;;;;;;;20.30;10.82;;;;;;;;;;5070218;28;20063;-66
2023/08/20 06:18:58;;;;;;;16.52;10.10;;;;;;;;;;5069428;28;20074;-66
2023/08/20 06:21:24;;;;;;;19.27;9.88;;;;;;;;;;5070084;28;20048;-66
2023/08/20 06:23:50;;;;;;;17.92;10.18;;;;;;;;;;5068619;28;20090;-66
2023/08/20 06:26:16;;;;;;;19.20;10.65;;;;;;;;;;5081537;28;20036;-66
2023/08/20 06:28:42;;;;;;;17.33;9.45;;;;;;;;;;5089774;28;20052;-66
2023/08/20 06:31:08;;;;;;;18.33;9.13;;;;;;;;;;5089870;28;20086;-66
2023/08/20 06:33:34;;;;;;;15.80;7.88;;;;;;;;;;5089594;28;20075;-66
2023/08/20 06:36:00;;;;;;;18.00;7.32;;;;;;;;;;5089989;28;20067;-66
2023/08/20 06:38:26;;;;;;;15.05;8.18;;;;;;;;;;5089896;28;20036;-66
2023/08/20 06:40:53;;;;;;;15.77;6.55;;;;;;;;;;5092718;28;20046;-66
2023/08/20 06:43:19;;;;;;;13.85;6.28;;;;;;;;;;5093629;28;20358;-66
2023/08/20 06:45:45;;;;;;;13.55;6.78;;;;;;;;;;5093929;28;20040;-66
2023/08/20 06:48:11;;;;;;;16.83;7.30;;;;;;;;;;5093934;28;20058;-66
2023/08/20 06:50:37;;;;;;;18.20;8.27;;;;;;;;;;5074374;28;20048;-66
2023/08/20 06:53:03;;;;;;;10.95;5.57;;;;;;;;;;5073593;28;20056;-66
2023/08/20 06:55:29;;;;;;;12.95;5.85;;;;;;;;;;5073534;28;20135;-66
2023/08/20 06:57:55;;;;;;;13.98;6.32;;;;;;;;;;5073063;28;20486;-66
2023/08/20 07:00:21;;;;;;;15.85;5.97;;;;;;;;;;5073345;28;20044;-66
2023/08/20 07:02:47;;;;;;;14.93;5.40;;;;;;;;;;5071800;28;20098;-66
2023/08/20 07:05:14;;;;;;;18.17;5.60;;;;;;;;;;5073309;28;20037;-66
2023/08/20 07:07:40;;;;;;;16.20;6.07;;;;;;;;;;5073376;28;20037;-66
2023/08/20 07:10:07;;;;;;;17.25;6.05;;;;;;;;;;5073295;28;20045;-66
2023/08/20 07:12:33;;;;;;;12.00;5.57;;;;;;;;;;5073000;28;20070;-66
2023/08/20 07:14:58;;;;;;;17.75;5.82;;;;;;;;;;5073276;28;20413;-66
2023/08/20 07:17:24;;;;;;;15.05;5.93;;;;;;;;;;5072800;28;20052;-66
2023/08/20 07:19:50;;;;;;;17.00;6.47;;;;;;;;;;5072550;28;20127;-66
2023/08/20 07:22:16;;;;;;;16.77;5.78;;;;;;;;;;5072776;28;20032;-66
2023/08/20 07:24:42;;;;;;;16.48;6.00;;;;;;;;;;5072723;28;20041;-66
2023/08/20 07:27:12;;;;;;;11.85;5.20;;;;;;;;;;5091481;28;20039;-66
2023/08/20 07:29:38;;;;;;;13.63;6.10;;;;;;;;;;5093010;28;20067;-66
2023/08/20 07:32:04;;;;;;;16.45;5.30;;;;;;;;;;5093176;28;20071;-66
2023/08/20 07:34:30;;;;;;;17.35;6.15;;;;;;;;;;5092680;28;20040;-66
2023/08/20 07:36:57;;;;;;;14.70;5.65;;;;;;;;;;5093064;28;20420;-66
2023/08/20 07:39:23;;;;;;;16.08;6.07;;;;;;;;;;5093062;28;20345;-66
2023/08/20 07:41:49;;;;;;;11.63;4.75;;;;;;;;;;5092456;28;20127;-66
2023/08/20 07:44:15;;;;;;;13.20;5.50;;;;;;;;;;5092757;28;20086;-66
2023/08/20 07:46:41;;;;;;;13.68;5.38;;;;;;;;;;5092941;28;20460;-66
2023/08/20 07:49:07;;;;;;;17.73;5.00;;;;;;;;;;5085944;28;20123;-66
2023/08/20 07:51:33;;;;;;;10.48;4.75;;;;;;;;;;5071540;28;20047;-66
2023/08/20 07:54:00;;;;;;;12.60;4.47;;;;;;;;;;5072384;28;20119;-64
2023/08/20 07:56:26;;;;;;;9.07;3.90;;;;;;;;;;5070771;28;20539;-64
2023/08/20 07:58:52;;;;;;;15.50;4.72;;;;;;;;;;5072378;28;20111;-64
2023/08/20 08:01:18;;;;;;;18.50;3.78;;;;;;;;;;5072139;28;20123;-64
2023/08/20 08:03:44;;;;;;;13.68;3.47;;;;;;;;;;5071835;28;20044;-64
2023/08/20 08:06:10;;;;;;;17.55;4.07;;;;;;;;;;5072204;28;20447;-64
2023/08/20 08:08:36;;;;;;;12.85;3.40;;;;;;;;;;5071986;28;20040;-64
2023/08/20 08:11:02;;;;;;;14.30;4.00;;;;;;;;;;5071685;28;20048;-64
2023/08/20 08:13:28;;;;;;;14.85;3.67;;;;;;;;;;5072055;28;20044;-64
2023/08/20 08:15:54;;;;;;;13.50;4.25;;;;;;;;;;5072024;28;20052;-64
2023/08/20 08:18:20;;;;;;;12.30;3.08;;;;;;;;;;5071509;28;20391;-64
2023/08/20 08:20:46;;;;;;;8.80;2.65;;;;;;;;;;5071662;28;20383;-64
2023/08/20 08:23:12;;;;;;;11.45;3.53;;;;;;;;;;5071747;28;20036;-64
2023/08/20 08:25:38;;;;;;;14.98;3.30;;;;;;;;;;5077573;28;20067;-64
2023/08/20 08:28:07;;;;;;;10.50;3.15;;;;;;;;;;5091775;28;20087;-64
2023/08/20 08:30:33;;;;;;;12.98;2.50;;;;;;;;;;5091664;28;20405;-64
2023/08/20 08:32:59;;;;;;;10.73;2.97;;;;;;;;;;5091482;28;20511;-64
2023/08/20 08:35:25;;;;;;;11.65;3.00;;;;;;;;;;5091691;28;20415;-64
2023/08/20 08:37:51;;;;;;;10.55;2.72;;;;;;;;;;5091489;28;20044;-64
2023/08/20 08:40:18;;;;;;;10.15;2.42;;;;;;;;;;5091008;28;20060;-64
2023/08/20 08:42:46;;;;;;;13.65;2.30;;;;;;;;;;5091340;28;20032;-64
2023/08/20 08:45:12;;;;;;;8.65;1.85;;;;;;;;;;5091398;28;20079;-64
2023/08/20 08:47:40;;;;;;;12.82;2.92;;;;;;;;;;5091221;28;20075;-64
2023/08/20 08:50:07;;;;;;;12.93;2.85;;;;;;;;;;5077125;28;20051;-64
2023/08/20 08:52:33;;;;;;;8.27;2.28;;;;;;;;;;5069942;28;20048;-64
2023/08/20 08:54:59;;;;;;;8.05;2.00;;;;;;;;;;5070797;28;20548;-64
2023/08/20 08:57:25;;;;;;;8.45;1.83;;;;;;;;;;5071087;28;20036;-64
2023/08/20 08:59:51;;;;;;;6.47;1.60;;;;;;;;;;5071230;28;20032;-64
2023/08/20 09:02:18;;;;;;;9.35;1.88;;;;;;;;;;5070479;28;20475;-64
2023/08/20 09:04:45;;;;;;;11.38;1.92;;;;;;;;;;5071180;28;20041;-64
2023/08/20 09:07:15;;;;;;;8.88;1.70;;;;;;;;;;5071060;28;20076;-64
2023/08/20 09:09:45;;;;;;;9.43;1.90;;;;;;;;;;5070566;28;20379;-64
2023/08/20 09:12:17;;;;;;;10.68;1.95;;;;;;;;;;5071009;28;20040;-64
2023/08/20 09:14:47;;;;;;;6.30;1.70;;;;;;;;;;5070941;28;20036;-64
2023/08/20 09:17:14;;;;;;;7.95;1.70;;;;;;;;;;5070365;28;20052;-64
2023/08/20 09:19:40;;;;;;;9.15;1.70;;;;;;;;;;5070437;28;20132;-64
2023/08/20 09:22:06;;;;;;;9.55;1.90;;;;;;;;;;5070713;28;20048;-64
2023/08/20 09:24:33;;;;;;;6.75;1.63;;;;;;;;;;5070516;28;20032;-64
2023/08/20 09:26:59;;;;;;;8.63;1.52;;;;;;;;;;5088346;28;20568;-64
2023/08/20 09:29:25;;;;;;;8.38;1.30;;;;;;;;;;5090520;28;20052;-64
2023/08/20 09:32:00;;;;;;;5.13;1.50;;;;;;;;;;5090334;28;20048;-64
2023/08/20 09:34:36;;;;;;;8.55;1.88;;;;;;;;;;5090472;28;20058;-64
2023/08/20 09:37:02;;;;;;;4.68;1.20;;;;;;;;;;5090929;28;20040;-64
2023/08/20 09:39:28;;;;;;;7.20;1.98;;;;;;;;;;5090485;28;20587;-64
2023/08/20 09:41:54;;;;;;;5.75;1.63;;;;;;;;;;5090409;28;20406;-64
2023/08/20 09:44:20;;;;;;;5.03;1.55;;;;;;;;;;5090919;28;20142;-64
2023/08/20 09:46:46;;;;;;;5.70;1.88;;;;;;;;;;5090367;28;20036;-64
2023/08/20 09:49:14;;;;;;;8.18;1.92;;;;;;;;;;5083710;28;20036;-64
2023/08/20 09:51:42;;;;;;;8.90;2.28;;;;;;;;;;5070494;28;20570;-64
2023/08/20 09:54:20;;;;;;;9.38;2.10;;;;;;;;;;5070224;28;20044;-64
2023/08/20 09:56:48;;;;;;;7.35;1.75;;;;;;;;;;5070505;28;20079;-64
2023/08/20 09:59:17;;;;;;;7.45;1.40;;;;;;;;;;5070333;28;20048;-64
2023/08/20 10:01:43;;;;;;;5.55;1.45;;;;;;;;;;5069542;28;20044;-64
2023/08/20 10:04:10;;;;;;;5.50;1.30;;;;;;;;;;5070348;28;20064;-64
2023/08/20 10:06:37;;;;;;;7.32;1.40;;;;;;;;;;5070157;28;20395;-64
2023/08/20 10:09:03;;;;;;;6.18;1.60;;;;;;;;;;5070221;28;20048;-64
2023/08/20 10:11:29;;;;;;;4.85;1.08;;;;;;;;;;5070162;28;20419;-64
2023/08/20 10:13:55;;;;;;;5.40;1.38;;;;;;;;;;5070363;28;20043;-64
2023/08/20 10:16:23;;;;;;;7.95;2.00;;;;;;;;;;5073585;28;20036;-64
2023/08/20 10:18:49;;;;;;;5.53;1.23;;;;;;;;;;5074113;28;20094;-64
2023/08/20 10:21:15;;;;;;;7.50;1.60;;;;;;;;;;5073997;28;20380;-64
2023/08/20 10:23:44;;;;;;;8.18;1.67;;;;;;;;;;5073527;28;20048;-64
2023/08/20 10:26:11;;;;;;;7.22;1.80;;;;;;;;;;5085076;28;20040;-64
2023/08/20 10:28:37;;;;;;;8.10;2.10;;;;;;;;;;5093975;28;20520;-64
2023/08/20 10:31:07;;;;;;;7.30;1.60;;;;;;;;;;5093809;28;20073;-64
2023/08/20 10:33:34;;;;;;;4.45;1.58;;;;;;;;;;5094240;28;20406;-64
2023/08/20 10:36:07;;;;;;;5.88;1.65;;;;;;;;;;5094094;28;20047;-64
2023/08/20 10:38:36;;;;;;;8.10;1.70;;;;;;;;;;5093338;28;20187;-64
2023/08/20 10:41:02;;;;;;;4.53;1.30;;;;;;;;;;5093924;28;20098;-64
2023/08/20 10:43:40;;;;;;;5.22;1.48;;;;;;;;;;5094051;28;20036;-64
2023/08/20 10:46:06;;;;;;;6.03;1.60;;;;;;;;;;5093903;28;20131;-64
2023/08/20 10:48:36;;;;;;;6.63;1.73;;;;;;;;;;5091904;28;20036;-64
2023/08/20 10:51:13;;;;;;;5.70;1.65;;;;;;;;;;5073507;28;20457;-64
2023/08/20 10:53:39;;;;;;;5.60;1.60;;;;;;;;;;5072787;28;20037;-64
2023/08/20 10:56:09;;;;;;;6.35;1.38;;;;;;;;;;5072293;28;20036;-64
2023/08/20 10:58:35;;;;;;;6.13;1.40;;;;;;;;;;5073082;28;20047;-64
2023/08/20 11:01:19;;;;;;;7.25;1.60;;;;;;;;;;5072980;28;20043;-64
2023/08/20 11:03:45;;;;;;;4.40;1.00;;;;;;;;;;5073357;28;20044;-64
2023/08/20 11:06:12;;;;;;;5.03;1.20;;;;;;;;;;5073022;28;20079;-64
2023/08/20 11:08:39;;;;;;;5.22;1.00;;;;;;;;;;5072775;28;20047;-64
2023/08/20 11:11:05;;;;;;;6.68;1.10;;;;;;;;;;5073202;28;20040;-64
2023/08/20 11:13:33;;;;;;;3.50;1.23;;;;;;;;;;5072994;28;20040;-64
2023/08/20 11:15:59;;;;;;;4.85;1.13;;;;;;;;;;5072805;28;20194;-64
2023/08/20 11:18:25;;;;;;;7.00;1.02;;;;;;;;;;5072943;28;20048;-64
2023/08/20 11:20:52;;;;;;;3.53;0.80;;;;;;;;;;5072959;28;20047;-66
2023/08/20 11:23:18;;;;;;;6.07;1.25;;;;;;;;;;5071112;28;20048;-66
2023/08/20 11:25:43;;;;;;;4.18;1.20;;;;;;;;;;5079221;28;20449;-66
2023/08/20 11:28:10;;;;;;;2.30;0.80;;;;;;;;;;5092520;28;20071;-66
2023/08/20 11:30:36;;;;;;;4.50;0.70;;;;;;;;;;5092482;28;20052;-66
2023/08/20 11:33:02;;;;;;;5.20;0.90;;;;;;;;;;5093034;28;20509;-66
2023/08/20 11:35:28;;;;;;;4.05;0.90;;;;;;;;;;5092870;28;20129;-64
2023/08/20 11:37:54;;;;;;;3.15;1.10;;;;;;;;;;5092672;28;20044;-64
2023/08/20 11:40:21;;;;;;;3.97;1.25;;;;;;;;;;5092554;28;20051;-64
2023/08/20 11:42:47;;;;;;;3.22;0.90;;;;;;;;;;5092893;28;20044;-64
2023/08/20 11:45:13;;;;;;;6.93;1.05;;;;;;;;;;5092373;28;20036;-64
2023/08/20 11:47:40;;;;;;;2.60;0.65;;;;;;;;;;5092487;28;20047;-64
2023/08/20 11:50:06;;;;;;;4.15;1.10;;;;;;;;;;5078005;28;20596;-64
2023/08/20 11:52:33;;;;;;;8.70;1.75;;;;;;;;;;5071954;28;20490;-64
2023/08/20 11:55:00;;;;;;;5.75;0.90;;;;;;;;;;5072372;28;20393;-64
2023/08/20 11:57:26;;;;;;;4.43;1.50;;;;;;;;;;5070834;28;20044;-64
2023/08/20 11:59:52;;;;;;;5.28;1.02;;;;;;;;;;5070687;28;20556;-64
2023/08/20 12:02:25;;;;;;;3.78;0.80;;;;;;;;;;5072495;28;20049;-64
2023/08/20 12:04:51;;;;;;;2.72;0.77;;;;;;;;;;5072297;28;20578;-64
2023/08/20 12:07:17;;;;;;;6.45;1.00;;;;;;;;;;5071874;28;20055;-64
2023/08/20 12:09:43;;;;;;;4.55;0.95;;;;;;;;;;5072205;28;20040;-64
2023/08/20 12:12:09;;;;;;;4.00;0.90;;;;;;;;;;5072240;28;20044;-64
2023/08/20 12:14:36;;;;;;;4.50;0.95;;;;;;;;;;5071654;28;20041;-64
2023/08/20 12:17:05;;;;;;;2.75;0.70;;;;;;;;;;5071948;28;20499;-64
2023/08/20 12:19:31;;;;;;;2.90;0.75;;;;;;;;;;5071631;28;20120;-64
2023/08/20 12:21:57;;;;;;;4.60;1.00;;;;;;;;;;5071370;28;20620;-64
2023/08/20 12:24:23;;;;;;;5.03;1.00;;;;;;;;;;5071822;28;20043;-64
2023/08/20 12:26:50;;;;;;;6.57;0.90;;;;;;;;;;5088011;28;20040;-64
2023/08/20 12:29:16;;;;;;;3.42;0.88;;;;;;;;;;5091230;28;20055;-64
2023/08/20 12:31:42;;;;;;;5.20;1.17;;;;;;;;;;5091780;28;20067;-64
2023/08/20 12:34:09;;;;;;;4.35;1.05;;;;;;;;;;5091700;28;20478;-64
2023/08/20 12:36:35;;;;;;;5.57;1.30;;;;;;;;;;5091293;28;20047;-64
2023/08/20 12:39:03;;;;;;;3.85;1.00;;;;;;;;;;5091139;28;20043;-64
2023/08/20 12:41:29;;;;;;;4.75;1.15;;;;;;;;;;5091359;28;20044;-64
2023/08/20 12:43:55;;;;;;;4.53;1.38;;;;;;;;;;5090992;28;20050;-64
2023/08/20 12:46:21;;;;;;;5.15;0.93;;;;;;;;;;5091624;28;20040;-64
2023/08/20 12:48:47;;;;;;;3.67;0.95;;;;;;;;;;5087884;28;20047;-64
2023/08/20 12:51:15;;;;;;;6.22;0.95;;;;;;;;;;5070727;28;20293;-64
2023/08/20 12:53:41;;;;;;;4.82;1.05;;;;;;;;;;5071229;28;20066;-64
2023/08/20 12:56:07;;;;;;;5.22;0.93;;;;;;;;;;5071177;28;20123;-64
2023/08/20 12:58:33;;;;;;;6.15;1.10;;;;;;;;;;5070605;28;20051;-64
2023/08/20 13:00:59;;;;;;;5.07;1.05;;;;;;;;;;5070917;28;20044;-64
2023/08/20 13:03:27;;;;;;;3.05;0.82;;;;;;;;;;5070859;28;20040;-64
2023/08/20 13:05:53;;;;;;;4.22;1.30;;;;;;;;;;5070614;28;20444;-64
2023/08/20 13:08:20;;;;;;;4.50;1.10;;;;;;;;;;5070918;28;20498;-64
2023/08/20 13:10:51;;;;;;;5.05;1.35;;;;;;;;;;5070905;28;20390;-64
2023/08/20 13:13:21;;;;;;;6.82;1.70;;;;;;;;;;5070547;28;20040;-64
2023/08/20 13:15:47;;;;;;;4.25;1.40;;;;;;;;;;5070920;28;20040;-64
2023/08/20 13:18:13;;;;;;;5.78;1.55;;;;;;;;;;5070758;28;20040;-64
2023/08/20 13:20:39;;;;;;;4.80;1.40;;;;;;;;;;5070196;28;20044;-64
2023/08/20 13:23:05;;;;;;;5.00;1.40;;;;;;;;;;5070604;28;20037;-64
2023/08/20 13:25:31;;;;;;;7.88;1.70;;;;;;;;;;5076177;28;20032;-64
2023/08/20 13:27:57;;;;;;;3.33;1.20;;;;;;;;;;5090361;28;20119;-65
2023/08/20 13:30:23;;;;;;;3.88;1.40;;;;;;;;;;5090637;28;20478;-64
2023/08/20 13:32:49;;;;;;;6.57;1.50;;;;;;;;;;5090800;28;20405;-64
2023/08/20 13:35:15;;;;;;;3.40;1.00;;;;;;;;;;5090911;28;20093;-64
2023/08/20 13:37:42;;;;;;;5.20;1.50;;;;;;;;;;5090470;28;20379;-64
2023/08/20 13:40:09;;;;;;;4.95;1.20;;;;;;;;;;5090575;28;20044;-64
2023/08/20 13:42:35;;;;;;;4.72;1.27;;;;;;;;;;5090626;28;20055;-64
2023/08/20 13:45:01;;;;;;;7.55;1.40;;;;;;;;;;5090641;28;20035;-64
2023/08/20 13:47:27;;;;;;;4.90;1.35;;;;;;;;;;5089466;28;20391;-64
2023/08/20 13:49:53;;;;;;;4.15;1.25;;;;;;;;;;5076963;28;20063;-64
2023/08/20 13:52:19;;;;;;;2.92;1.00;;;;;;;;;;5070155;28;20040;-64
2023/08/20 13:54:46;;;;;;;6.45;1.30;;;;;;;;;;5070327;28;20232;-64
2023/08/20 13:57:12;;;;;;;3.45;0.95;;;;;;;;;;5070321;28;20044;-64
2023/08/20 13:59:38;;;;;;;4.88;1.40;;;;;;;;;;5069665;28;20475;-64
2023/08/20 14:02:04;;;;;;;5.25;1.80;;;;;;;;;;5069997;28;20040;-64
2023/08/20 14:04:30;;;;;;;4.63;1.60;;;;;;;;;;5070245;28;20037;-64
2023/08/20 14:06:56;;;;;;;3.42;1.30;;;;;;;;;;5069955;28;20036;-64
2023/08/20 14:09:22;;;;;;;3.53;1.63;;;;;;;;;;5070047;28;20044;-64
2023/08/20 14:11:48;;;;;;;4.10;1.13;;;;;;;;;;5070427;28;20045;-64
2023/08/20 14:14:15;;;;;;;4.78;1.30;;;;;;;;;;5069848;28;20053;-64
2023/08/20 14:16:40;;;;;;;3.42;1.33;;;;;;;;;;5068837;28;20040;-64
2023/08/20 14:19:06;;;;;;;2.40;0.82;;;;;;;;;;5070057;28;20086;-64
2023/08/20 14:21:33;;;;;;;4.20;1.02;;;;;;;;;;5069247;28;20048;-64
2023/08/20 14:23:58;;;;;;;3.70;1.23;;;;;;;;;;5070150;28;20072;-64
2023/08/20 14:26:25;;;;;;;5.75;1.27;;;;;;;;;;5082969;28;20169;-64
2023/08/20 14:28:50;;;;;;;3.92;1.00;;;;;;;;;;5088231;28;20055;-64
2023/08/20 14:31:18;;;;;;;5.00;1.50;;;;;;;;;;5090124;28;20040;-64